Airport Name : Roi Et

Other Name : Roi Et

ICAO : VTUV

IATA : ROI

FAA :

Latitude : 16.116761

Longitude : 103.773797

Country : Thailand

Local Date and Time : 8/22/2018 12:46:00 PM

 

TAF (Terminal Aerodrome Forecast)

TAF VTUV 220500Z 2206/2306 24008KT 9000 SCT025 BKN080 TEMPO 2207/2210 VRB15KT 5000 TSRA FEW018CB BKN020 OVC080 TEMPO 2223/2302 VRB10KT 5000 RA BKN020 OVC080

 

METAR (METeorological Aerodrome Report)

VTUV 220500Z 20007KT 8000 SCT025 BKN060 28/25 Q1005 NOSIG

VTUV 220400Z 20006KT 7000 SCT025 BKN060 26/25 Q1006 NOSIG

VTUV 220300Z 20005KT 7000 -RA SCT025 BKN060 25/24 Q1006 TEMPO TL0400 7000 -RA

VTUV 220200Z 19003KT 5000 -RA SCT025 BKN060 24/23 Q1005 TEMPO 5000 -RA